Latest Weather Observations for Eucla

IDW60801

Issued at 10:04 am WST Tuesday 28 March 2017 (issued every 30 minutes, with the page automatically refreshed every 10 minutes)

About weather observations | Map of weather stations | Latest weather observations for WA | Other Formats
Station Details ID: 011003 Name: EUCLA Lat: -31.68 Lon: 128.90 Height: 93.1 m
Data from the previous 72 hours. | See also: Recent months at Eucla
Date/Time
WST
Temp
°C
App
Temp
°C
Dew
Point
°C
Rel
Hum
%
Delta-T
°C
Wind Press
QNH
hPa
Press
MSL
hPa
Rain since
9am
mm
Dir  Spd
km/h
Gust
km/h
Spd
kts
Gust
kts
28/10:00am 23.7 21.8 8.9 39 8.0 NW 9 15 5 8 1017.7 - 0.0
28/09:30am 23.2 21.7 10.6 45 7.0 NW 9 15 5 8 1018.1 1017.8 0.0
28/09:00am 22.3 20.6 11.1 49 6.2 N 11 19 6 10 1018.6 1018.3 0.0
28/08:30am 21.2 19.6 11.5 54 5.4 N 11 17 6 9 1018.7 1018.4 0.0
28/08:00am 19.3 17.7 11.6 61 4.2 N 11 17 6 9 1018.6 1018.3 0.0
28/07:30am 17.4 15.0 11.4 68 3.3 N 15 17 8 9 1018.7 1018.4 0.0
28/07:00am 14.9 13.1 10.9 77 2.1 N 11 13 6 7 1018.5 1018.2 0.0
28/06:30am 12.1 10.1 10.0 87 1.1 N 11 15 6 8 1018.4 1018.1 0.0
28/06:00am 10.3 8.0 9.1 92 0.6 N 11 13 6 7 1018.3 1018.0 0.0
28/05:30am 10.1 7.8 9.0 93 0.5 NNW 11 13 6 7 1018.4 1018.1 0.0
28/05:00am 10.3 8.1 9.2 93 0.5 NNW 11 13 6 7 1018.2 1017.9 0.0
28/04:30am 10.2 7.9 9.0 92 0.6 NNW 11 11 6 6 1017.9 1017.6 0.0
28/04:00am 10.3 8.4 9.1 92 0.6 NNW 9 11 5 6 1017.8 1017.5 0.0
28/03:30am 10.1 8.2 8.9 92 0.6 NNW 9 11 5 6 1017.5 1017.2 0.0
28/03:00am 10.4 8.1 9.0 91 0.7 NNW 11 11 6 6 1017.7 1017.4 0.0
28/02:30am 10.2 7.8 8.8 91 0.7 N 11 13 6 7 1017.7 1017.4 0.0
28/02:00am 10.1 8.1 8.7 91 0.7 N 9 11 5 6 1017.8 1017.5 0.0
28/01:30am 10.4 8.4 8.8 90 0.8 N 9 11 5 6 1017.9 1017.6 0.0
28/01:00am 10.7 8.8 9.1 90 0.8 N 9 9 5 5 1018.1 1017.8 0.0
28/12:30am 10.5 10.1 8.4 87 1.0 CALM 0 0 0 0 1018.1 1017.8 0.0
28/12:00am 11.2 11.0 9.1 87 1.0 CALM 0 0 0 0 1018.5 1018.2 0.0
 
Date/Time
WST
Temp
°C
App
Temp
°C
Dew
Point
°C
Rel
Hum
%
Delta-T
°C
Wind Press
QNH
hPa
Press
MSL
hPa
Rain since
9am
mm
Dir  Spd
km/h
Gust
km/h
Spd
kts
Gust
kts
27/11:30pm 11.0 10.6 8.1 82 1.4 CALM 0 0 0 0 1018.6 1018.3 0.0
27/11:00pm 12.7 11.5 9.7 82 1.5 SSE 6 6 3 3 1018.7 1018.4 0.0
27/10:30pm 13.6 12.5 9.8 78 2.0 S 6 7 3 4 1019.2 1018.8 0.0
27/10:00pm 15.5 14.4 10.7 73 2.5 S 7 11 4 6 1019.4 1019.0 0.0
27/09:30pm 15.7 14.6 10.7 72 2.7 SSE 7 11 4 6 1019.6 1019.3 0.0
27/09:00pm 16.2 15.2 10.9 71 2.8 SSE 7 11 4 6 1019.5 1019.2 0.0
27/08:30pm 16.3 14.8 10.6 69 3.0 SSE 9 15 5 8 1019.6 1019.3 0.0
27/08:00pm 16.5 14.6 10.4 67 3.2 S 11 15 6 8 1019.4 1019.0 0.0
27/07:30pm 16.5 14.7 10.8 69 3.1 S 11 15 6 8 1019.3 1018.9 0.0
27/07:00pm 16.8 15.1 11.1 69 3.1 S 11 15 6 8 1019.2 1018.8 0.0
27/06:30pm 17.0 15.3 11.1 68 3.2 S 11 15 6 8 1018.8 1018.5 0.0
27/06:00pm 17.4 16.2 11.7 69 3.1 SSE 9 15 5 8 1018.7 1018.4 0.0
27/05:30pm 18.2 16.7 12.0 67 3.4 S 11 17 6 9 1018.6 1018.3 0.0
27/05:00pm 19.1 16.9 12.1 64 3.9 SSE 15 22 8 12 1018.6 1018.3 0.0
27/04:30pm 20.0 17.9 12.5 62 4.2 S 15 19 8 10 1018.6 1018.3 0.0
27/04:00pm 20.4 18.7 12.6 61 4.4 S 13 22 7 12 1018.5 1018.2 0.0
27/03:30pm 21.0 18.6 11.3 54 5.4 SSE 15 20 8 11 1018.4 1018.1 0.0
27/03:00pm 21.5 18.9 10.6 50 6.0 S 15 20 8 11 1018.6 1018.3 0.0
27/02:30pm 22.1 19.1 9.3 44 6.9 S 15 26 8 14 1018.6 1018.3 0.0
27/02:00pm 22.0 18.8 9.9 46 6.6 S 17 24 9 13 1018.7 1018.4 0.0
27/01:30pm 22.3 19.1 9.8 45 6.8 S 17 28 9 15 1018.7 1018.4 0.0
27/01:00pm 22.7 19.0 8.0 39 7.7 S 17 26 9 14 1019.2 1018.8 0.0
27/12:30pm 22.7 19.1 10.5 46 6.7 S 20 28 11 15 1019.5 1019.2 0.0
27/12:00pm 22.7 19.4 9.5 43 7.1 S 17 26 9 14 1020.0 1019.7 0.0
27/11:30am 22.6 18.8 9.0 42 7.3 SSW 19 32 10 17 1020.2 1019.9 0.0
27/11:00am 21.8 18.2 9.7 46 6.5 S 19 33 10 18 1020.5 1020.2 0.0
27/10:30am 22.5 18.8 10.0 45 6.8 SSW 20 33 11 18 1020.5 1020.2 0.0
27/10:00am 22.1 18.6 10.3 47 6.4 SSW 19 28 10 15 1020.5 1020.2 0.0
27/09:30am 21.9 18.3 9.8 46 6.6 SSW 19 33 10 18 1020.5 1020.2 0.0
27/09:00am 21.0 16.4 8.0 43 6.8 SSW 22 35 12 19 1020.6 1020.3 0.0
27/08:30am 21.2 16.3 9.8 48 6.2 SSW 26 43 14 23 1020.4 1020.1 0.0
27/08:00am 20.4 15.9 8.7 47 6.2 SW 22 37 12 20 1019.8 1019.5 0.0
27/07:30am 19.8 15.6 9.7 52 5.4 SW 22 35 12 19 1019.5 1019.2 0.0
27/07:00am 19.1 15.9 10.1 56 4.8 SW 17 32 9 17 1019.1 1018.7 0.0
27/06:30am 17.0 14.4 10.8 67 3.3 SW 15 26 8 14 1018.8 1018.5 0.0
27/06:00am 16.5 14.4 11.0 70 3.0 SW 13 19 7 10 1018.4 1018.1 0.0
27/05:30am 16.3 13.8 11.2 72 2.8 SW 15 24 8 13 1018.1 1017.8 0.0
27/05:00am 16.3 13.8 11.2 72 2.7 SW 15 26 8 14 1017.9 1017.6 0.0
27/04:30am 16.5 14.4 11.2 71 2.9 SW 13 22 7 12 1017.5 1017.2 0.0
27/04:00am 16.4 14.3 11.1 71 2.9 SW 13 19 7 10 1017.0 1016.7 0.0
27/03:30am 17.4 14.9 11.2 67 3.4 SW 15 24 8 13 1016.7 1016.4 0.0
27/03:00am 17.8 15.8 11.6 67 3.4 SW 13 24 7 13 1016.3 1016.0 0.0
27/02:30am 18.1 15.8 11.9 67 3.4 SW 15 22 8 12 1015.9 1015.6 0.0
27/02:00am 18.6 16.2 11.4 63 3.9 SW 15 22 8 12 1015.9 1015.6 0.0
27/01:30am 18.4 15.6 11.5 64 3.8 SSW 17 28 9 15 1015.9 1015.6 0.0
27/01:00am 18.6 15.9 11.7 64 3.8 SSW 17 24 9 13 1015.7 1015.4 0.0
27/12:30am 19.3 16.3 12.1 63 4.0 SSW 19 32 10 17 1015.6 1015.3 0.0
27/12:00am 19.4 15.3 11.4 60 4.4 SSW 24 41 13 22 1015.5 1015.2 0.0
 
Date/Time
WST
Temp
°C
App
Temp
°C
Dew
Point
°C
Rel
Hum
%
Delta-T
°C
Wind Press
QNH
hPa
Press
MSL
hPa
Rain since
9am
mm
Dir  Spd
km/h
Gust
km/h
Spd
kts
Gust
kts
26/11:30pm 19.3 15.7 11.8 62 4.2 SSW 22 39 12 21 1015.2 1014.9 0.0
26/11:00pm 19.2 15.2 11.7 62 4.1 SSW 24 37 13 20 1015.3 1015.0 0.0
26/10:51pm 19.3 14.3 11.1 59 4.5 SSW 28 46 15 25 1015.3 1015.0 0.0
26/10:30pm 19.3 14.9 11.6 61 4.3 SSW 26 37 14 20 1015.0 1014.7 0.0
26/10:00pm 19.5 15.4 12.8 65 3.8 SSW 26 39 14 21 1014.5 1014.2 0.0
26/09:30pm 19.7 16.1 14.1 70 3.2 SSW 26 37 14 20 1014.3 1014.0 0.0
26/09:00pm 20.1 16.4 14.9 72 3.1 SSW 28 46 15 25 1013.9 1013.6 0.0
26/08:58pm 20.1 16.4 15.1 73 3.0 SSW 28 46 15 25 1013.9 1013.6 0.0
26/08:30pm 20.5 17.9 15.9 75 2.8 SSW 24 37 13 20 1013.7 1013.4 0.0
26/08:00pm 20.8 18.2 15.8 73 3.0 SSW 24 37 13 20 1013.2 1012.9 0.0
26/07:30pm 21.1 17.8 15.0 68 3.6 SSW 26 41 14 22 1012.4 1012.1 0.0
26/07:03pm 21.3 17.9 15.8 71 3.3 SW 28 46 15 25 1011.8 1011.5 0.0
26/07:00pm 21.6 19.5 18.0 80 2.2 SW 26 39 14 21 1011.8 1011.5 0.0
26/06:30pm 22.2 20.4 18.8 81 2.2 SSW 26 43 14 23 1011.1 1010.8 0.0
26/06:00pm 22.4 22.4 19.0 81 2.2 SSW 17 28 9 15 1010.1 1009.7 0.0
26/05:30pm 22.9 23.0 19.1 79 2.4 SW 17 26 9 14 1009.0 1008.6 0.0
26/05:00pm 24.1 24.2 19.2 74 3.1 SW 17 30 9 16 1008.2 1007.8 0.0
26/04:30pm 25.0 25.1 19.1 70 3.8 SW 17 28 9 15 1007.4 1007.1 0.0
26/04:00pm 26.1 26.1 19.7 68 4.2 SSW 19 26 10 14 1006.7 1006.4 0.0
26/03:30pm 26.1 26.0 20.0 69 4.0 SSW 20 28 11 15 1006.1 1005.8 0.0
26/03:00pm 27.3 27.7 19.9 64 4.9 SSW 17 30 9 16 1005.6 1005.3 0.0
26/02:45pm 28.2 28.0 19.4 59 5.7 SSW 19 28 10 15 1005.4 1005.1 0.0
26/02:30pm 33.3 32.7 20.5 47 8.6 WSW 24 37 13 20 1005.2 1004.9 0.0
26/02:00pm 33.8 31.7 19.8 43 9.3 WNW 30 48 16 26 1004.7 1004.4 0.0
26/01:56pm 33.8 31.6 19.5 43 9.5 W 30 48 16 26 1004.8 1004.5 0.0
26/01:30pm 34.7 33.2 19.5 40 10.1 W 26 41 14 22 1004.5 1004.2 0.0
26/01:03pm 35.6 33.8 19.5 38 10.7 W 28 48 15 26 1004.2 1003.9 0.0
26/01:00pm 35.4 33.5 19.3 38 10.7 W 28 43 15 23 1004.3 1004.0 0.0
26/12:30pm 37.1 34.7 19.1 35 12.0 WNW 30 44 16 24 1004.1 1003.8 0.0
26/12:12pm 37.0 34.3 18.5 33 12.2 NW 30 48 16 26 1004.2 1003.9 0.0
26/12:00pm 37.2 34.4 18.2 32 12.5 WNW 30 46 16 25 1004.1 1003.8 0.0
26/11:59am 37.0 34.7 18.5 33 12.2 WNW 28 46 15 25 1004.1 1003.8 0.0
26/11:30am 37.0 34.5 18.1 33 12.4 NW 28 43 15 23 1004.5 1004.2 0.0
26/11:00am 36.5 33.8 17.6 32 12.3 NW 28 39 15 21 1004.8 1004.5 0.0
26/10:30am 33.9 31.8 17.2 37 10.7 NW 24 37 13 20 1004.9 1004.6 0.0
26/10:00am 32.1 29.5 16.8 40 9.7 NW 26 39 14 21 1005.0 1004.7 0.0
26/09:30am 30.6 28.9 17.3 45 8.5 NNW 22 35 12 19 1005.3 1005.0 0.0
26/09:00am 28.0 26.7 17.2 52 6.8 N 20 30 11 16 1005.6 1005.3 3.6
26/08:30am 27.3 25.0 16.6 52 6.7 N 24 33 13 18 1005.5 1005.2 3.6
26/08:00am 24.6 22.4 16.8 62 4.8 NNE 24 35 13 19 1005.5 1005.2 3.6
26/07:30am 23.1 22.5 16.6 67 4.0 NNE 15 24 8 13 1005.9 1005.6 3.4
26/07:00am 21.2 20.7 16.8 76 2.7 NNE 15 20 8 11 1005.9 1005.6 3.4
26/06:30am 20.8 21.6 17.2 80 2.2 NNE 9 13 5 7 1006.3 1006.0 3.4
26/06:00am 20.0 20.1 17.4 85 1.6 NE 13 17 7 9 1006.1 1005.8 3.4
26/05:30am 20.2 20.4 17.6 85 1.6 ENE 13 20 7 11 1006.1 1005.8 3.4
26/05:00am 20.5 20.7 17.7 84 1.7 E 13 17 7 9 1006.5 1006.2 3.4
26/04:30am 20.6 20.5 17.8 84 1.7 ESE 15 24 8 13 1006.5 1006.2 3.4
26/04:00am 20.7 20.5 17.7 83 1.9 SE 15 22 8 12 1006.5 1006.2 3.4
26/03:30am 20.8 21.7 16.6 77 2.6 SSE 7 13 4 7 1006.7 1006.4 3.4
26/03:00am 21.8 20.0 16.1 70 3.5 ENE 20 32 11 17 1006.0 1005.7 3.4
26/02:30am 20.8 18.8 16.4 76 2.7 ENE 22 32 12 17 1006.4 1006.1 3.4
26/02:00am 20.4 19.1 17.2 82 2.0 NE 20 32 11 17 1008.2 1007.8 3.0
26/01:30am 21.7 21.3 16.2 71 3.3 E 13 22 7 12 1007.5 1007.2 0.0
26/01:00am 21.1 21.4 16.9 77 2.6 NE 11 17 6 9 1007.9 1007.5 0.0
26/12:30am 20.4 20.9 17.4 83 1.8 ENE 11 19 6 10 1008.1 1007.7 0.0
26/12:00am 20.1 21.0 18.4 90 1.1 ENE 11 17 6 9 1008.6 1008.2 0.0
 
Date/Time
WST
Temp
°C
App
Temp
°C
Dew
Point
°C
Rel
Hum
%
Delta-T
°C
Wind Press
QNH
hPa
Press
MSL
hPa
Rain since
9am
mm
Dir  Spd
km/h
Gust
km/h
Spd
kts
Gust
kts
25/11:30pm 20.1 21.2 18.8 92 0.8 E 11 15 6 8 1009.0 1008.6 0.0
25/11:00pm 20.1 21.2 18.9 93 0.8 E 11 19 6 10 1009.6 1009.2 0.0
25/10:30pm 20.0 21.0 18.7 92 0.8 ESE 11 15 6 8 1010.0 1009.6 0.0
25/10:00pm 20.1 20.4 18.8 92 0.8 E 15 24 8 13 1009.9 1009.5 0.0
25/09:30pm 20.1 20.5 18.9 93 0.8 E 15 24 8 13 1010.3 1010.0 0.0
25/09:00pm 20.0 20.7 18.8 93 0.8 E 13 24 7 13 1010.9 1010.6 0.0
25/08:30pm 20.1 20.8 18.9 93 0.8 E 13 20 7 11 1011.4 1011.1 0.0
25/08:00pm 20.2 21.0 19.0 93 0.8 ESE 13 19 7 10 1011.5 1011.2 0.0
25/07:30pm 20.2 20.5 18.7 91 0.9 E 15 28 8 15 1010.9 1010.6 0.0
25/07:00pm 20.2 19.8 18.9 92 0.8 E 19 30 10 16 1010.2 1009.9 0.0
25/06:30pm 20.2 20.2 18.9 92 0.8 E 17 28 9 15 1010.4 1010.1 0.0
25/06:00pm 20.1 19.6 19.1 94 0.6 E 20 28 11 15 1010.1 1009.7 0.0
25/05:30pm 20.3 20.8 19.3 94 0.6 ESE 15 26 8 14 1010.7 1010.4 0.0
25/05:00pm 20.4 20.9 19.2 93 0.8 E 15 26 8 14 1011.5 1011.2 0.0
25/04:30pm 20.4 20.8 19.1 92 0.8 E 15 28 8 15 1010.7 1010.4 0.0
25/04:00pm 20.5 21.0 19.2 92 0.8 E 15 28 8 15 1010.4 1010.1 0.0
25/03:30pm 20.5 20.6 19.2 92 0.8 E 17 24 9 13 1011.2 1010.9 0.0
25/03:00pm 20.5 20.3 19.3 93 0.8 ESE 19 30 10 16 1011.0 1010.7 0.0
25/02:30pm 20.4 20.9 19.2 93 0.8 E 15 26 8 14 1011.0 1010.7 0.0
25/02:00pm 20.4 19.9 19.2 93 0.8 E 20 30 11 16 1010.9 1010.6 0.0
25/01:30pm 20.4 20.2 19.4 94 0.6 ESE 19 35 10 19 1010.6 1010.3 0.0
25/01:00pm 20.5 21.4 19.2 92 0.8 SE 13 20 7 11 1012.6 1012.3 0.0
25/12:30pm 20.4 21.3 19.2 93 0.8 ESE 13 19 7 10 1012.7 1012.4 0.0
25/12:00pm 20.4 20.9 19.2 93 0.8 SE 15 24 8 13 1012.0 1011.7 0.0
25/11:30am 20.4 20.9 19.2 93 0.8 ESE 15 22 8 12 1012.5 1012.2 0.0
25/11:00am 20.7 22.1 19.5 93 0.8 SE 11 15 6 8 1013.2 1012.9 0.0
25/10:30am 20.7 22.2 19.7 94 0.6 SSE 11 17 6 9 1014.1 1013.8 0.0

Other Formats:

Comma delimited format used in spreadsheet applications
http://www.bom.gov.au/fwo/IDW60801/IDW60801.94647.axf

JavaScript Object Notation format (JSON) in row-major order
http://www.bom.gov.au/fwo/IDW60801/IDW60801.94647.json